sensor_id;sensor_type;location;lat;lon;timestamp;P1;durP1;ratioP1;P2;durP2;ratioP2
54452;SDS011;40363;52.270;10.546;2024-03-08T00:00:56;27.95;;;13.85;;
54452;SDS011;40363;52.270;10.546;2024-03-08T00:03:38;24.90;;;13.20;;
54452;SDS011;40363;52.270;10.546;2024-03-08T00:06:30;25.20;;;13.93;;
54452;SDS011;40363;52.270;10.546;2024-03-08T00:13:04;28.70;;;14.68;;
54452;SDS011;40363;52.270;10.546;2024-03-08T00:16:02;29.80;;;15.65;;
54452;SDS011;40363;52.270;10.546;2024-03-08T01:10:15;27.27;;;14.00;;
54452;SDS011;40363;52.270;10.546;2024-03-08T01:12:42;26.00;;;13.88;;
54452;SDS011;40363;52.270;10.546;2024-03-08T01:15:09;31.95;;;16.17;;
54452;SDS011;40363;52.270;10.546;2024-03-08T01:17:36;28.92;;;14.35;;
54452;SDS011;40363;52.270;10.546;2024-03-08T01:20:04;30.52;;;14.18;;
54452;SDS011;40363;52.270;10.546;2024-03-08T01:22:31;28.80;;;14.82;;
54452;SDS011;40363;52.270;10.546;2024-03-08T01:24:58;33.08;;;13.82;;
54452;SDS011;40363;52.270;10.546;2024-03-08T01:27:26;30.05;;;15.70;;
54452;SDS011;40363;52.270;10.546;2024-03-08T01:29:53;25.15;;;13.98;;
54452;SDS011;40363;52.270;10.546;2024-03-08T01:32:19;29.45;;;14.80;;
54452;SDS011;40363;52.270;10.546;2024-03-08T01:34:48;27.35;;;15.13;;
54452;SDS011;40363;52.270;10.546;2024-03-08T01:37:14;32.30;;;14.32;;
54452;SDS011;40363;52.270;10.546;2024-03-08T01:39:41;29.83;;;15.00;;
54452;SDS011;40363;52.270;10.546;2024-03-08T01:42:08;32.03;;;15.35;;
54452;SDS011;40363;52.270;10.546;2024-03-08T01:44:39;32.33;;;15.55;;
54452;SDS011;40363;52.270;10.546;2024-03-08T01:47:05;31.13;;;15.57;;
54452;SDS011;40363;52.270;10.546;2024-03-08T01:49:33;35.30;;;15.52;;
54452;SDS011;40363;52.270;10.546;2024-03-08T01:52:00;28.33;;;14.48;;
54452;SDS011;40363;52.270;10.546;2024-03-08T01:54:27;28.92;;;14.85;;
54452;SDS011;40363;52.270;10.546;2024-03-08T01:56:55;30.67;;;15.35;;
54452;SDS011;40363;52.270;10.546;2024-03-08T01:59:23;31.45;;;15.65;;
54452;SDS011;40363;52.270;10.546;2024-03-08T02:01:53;28.40;;;15.90;;
54452;SDS011;40363;52.270;10.546;2024-03-08T02:04:21;34.50;;;14.95;;
54452;SDS011;40363;52.270;10.546;2024-03-08T02:06:49;27.30;;;14.48;;
54452;SDS011;40363;52.270;10.546;2024-03-08T02:09:16;31.25;;;14.57;;
54452;SDS011;40363;52.270;10.546;2024-03-08T02:11:43;31.08;;;14.88;;
54452;SDS011;40363;52.270;10.546;2024-03-08T02:14:11;34.80;;;17.98;;
54452;SDS011;40363;52.270;10.546;2024-03-08T02:16:37;30.45;;;15.07;;
54452;SDS011;40363;52.270;10.546;2024-03-08T02:19:05;31.08;;;18.00;;
54452;SDS011;40363;52.270;10.546;2024-03-08T02:21:36;29.30;;;14.85;;
54452;SDS011;40363;52.270;10.546;2024-03-08T02:24:03;32.80;;;16.38;;
54452;SDS011;40363;52.270;10.546;2024-03-08T02:26:30;29.10;;;16.80;;
54452;SDS011;40363;52.270;10.546;2024-03-08T02:28:57;32.65;;;16.73;;
54452;SDS011;40363;52.270;10.546;2024-03-08T02:31:23;33.25;;;18.23;;
54452;SDS011;40363;52.270;10.546;2024-03-08T02:33:50;34.40;;;18.15;;
54452;SDS011;40363;52.270;10.546;2024-03-08T02:36:16;32.92;;;17.58;;
54452;SDS011;40363;52.270;10.546;2024-03-08T02:38:44;31.13;;;16.08;;
54452;SDS011;40363;52.270;10.546;2024-03-08T02:41:11;33.92;;;17.80;;
54452;SDS011;40363;52.270;10.546;2024-03-08T02:43:37;34.20;;;17.73;;
54452;SDS011;40363;52.270;10.546;2024-03-08T02:46:04;29.23;;;15.98;;
54452;SDS011;40363;52.270;10.546;2024-03-08T02:48:31;31.95;;;17.10;;
54452;SDS011;40363;52.270;10.546;2024-03-08T02:50:58;31.33;;;17.98;;
54452;SDS011;40363;52.270;10.546;2024-03-08T02:53:24;28.75;;;15.98;;
54452;SDS011;40363;52.270;10.546;2024-03-08T02:55:52;38.47;;;16.80;;
54452;SDS011;40363;52.270;10.546;2024-03-08T02:58:20;34.40;;;17.30;;
54452;SDS011;40363;52.270;10.546;2024-03-08T03:00:47;33.65;;;17.67;;
54452;SDS011;40363;52.270;10.546;2024-03-08T03:03:13;31.90;;;16.83;;
54452;SDS011;40363;52.270;10.546;2024-03-08T03:05:40;32.88;;;16.92;;
54452;SDS011;40363;52.270;10.546;2024-03-08T03:08:07;31.25;;;15.35;;
54452;SDS011;40363;52.270;10.546;2024-03-08T03:10:36;33.67;;;16.80;;
54452;SDS011;40363;52.270;10.546;2024-03-08T03:13:04;31.73;;;16.48;;
54452;SDS011;40363;52.270;10.546;2024-03-08T03:15:31;28.17;;;15.55;;
54452;SDS011;40363;52.270;10.546;2024-03-08T03:17:58;34.58;;;17.05;;
54452;SDS011;40363;52.270;10.546;2024-03-08T03:20:25;33.75;;;16.40;;
54452;SDS011;40363;52.270;10.546;2024-03-08T03:22:57;34.45;;;18.83;;
54452;SDS011;40363;52.270;10.546;2024-03-08T03:25:26;32.47;;;16.60;;
54452;SDS011;40363;52.270;10.546;2024-03-08T03:27:58;33.10;;;16.27;;
54452;SDS011;40363;52.270;10.546;2024-03-08T03:30:26;33.80;;;16.00;;
54452;SDS011;40363;52.270;10.546;2024-03-08T03:32:58;30.63;;;15.40;;
54452;SDS011;40363;52.270;10.546;2024-03-08T03:35:25;35.60;;;17.15;;
54452;SDS011;40363;52.270;10.546;2024-03-08T03:37:52;33.38;;;17.13;;
54452;SDS011;40363;52.270;10.546;2024-03-08T03:40:30;39.33;;;17.27;;
54452;SDS011;40363;52.270;10.546;2024-03-08T03:42:57;33.30;;;17.20;;
54452;SDS011;40363;52.270;10.546;2024-03-08T03:45:25;33.13;;;16.67;;
54452;SDS011;40363;52.270;10.546;2024-03-08T03:50:44;32.50;;;16.17;;
54452;SDS011;40363;52.270;10.546;2024-03-08T03:53:10;36.63;;;19.90;;
54452;SDS011;40363;52.270;10.546;2024-03-08T03:55:38;36.35;;;16.98;;
54452;SDS011;40363;52.270;10.546;2024-03-08T03:58:05;32.97;;;17.10;;
54452;SDS011;40363;52.270;10.546;2024-03-08T04:00:32;33.13;;;17.52;;
54452;SDS011;40363;52.270;10.546;2024-03-08T04:02:59;31.40;;;16.88;;
54452;SDS011;40363;52.270;10.546;2024-03-08T04:05:26;37.55;;;17.70;;
54452;SDS011;40363;52.270;10.546;2024-03-08T04:07:53;39.42;;;18.67;;
54452;SDS011;40363;52.270;10.546;2024-03-08T04:10:19;37.58;;;17.08;;
54452;SDS011;40363;52.270;10.546;2024-03-08T04:12:46;28.50;;;17.35;;
54452;SDS011;40363;52.270;10.546;2024-03-08T04:15:13;35.83;;;16.90;;
54452;SDS011;40363;52.270;10.546;2024-03-08T04:17:41;36.08;;;17.52;;
54452;SDS011;40363;52.270;10.546;2024-03-08T04:20:11;37.67;;;18.35;;
54452;SDS011;40363;52.270;10.546;2024-03-08T04:22:39;36.95;;;18.25;;
54452;SDS011;40363;52.270;10.546;2024-03-08T04:25:07;37.25;;;17.95;;
54452;SDS011;40363;52.270;10.546;2024-03-08T04:27:35;38.03;;;18.20;;
54452;SDS011;40363;52.270;10.546;2024-03-08T04:30:01;35.38;;;19.05;;
54452;SDS011;40363;52.270;10.546;2024-03-08T04:32:29;31.67;;;17.20;;
54452;SDS011;40363;52.270;10.546;2024-03-08T04:34:58;33.72;;;17.30;;
54452;SDS011;40363;52.270;10.546;2024-03-08T04:37:26;33.70;;;16.92;;
54452;SDS011;40363;52.270;10.546;2024-03-08T04:39:54;38.08;;;18.55;;
54452;SDS011;40363;52.270;10.546;2024-03-08T04:42:21;35.65;;;17.50;;
54452;SDS011;40363;52.270;10.546;2024-03-08T04:44:48;36.05;;;18.58;;
54452;SDS011;40363;52.270;10.546;2024-03-08T04:47:15;41.60;;;18.75;;
54452;SDS011;40363;52.270;10.546;2024-03-08T04:49:43;37.30;;;17.70;;
54452;SDS011;40363;52.270;10.546;2024-03-08T04:52:11;34.70;;;18.88;;
54452;SDS011;40363;52.270;10.546;2024-03-08T04:54:37;34.13;;;17.20;;
54452;SDS011;40363;52.270;10.546;2024-03-08T04:57:04;37.33;;;18.95;;
54452;SDS011;40363;52.270;10.546;2024-03-08T04:59:31;35.47;;;18.92;;
54452;SDS011;40363;52.270;10.546;2024-03-08T05:01:57;35.25;;;18.73;;
54452;SDS011;40363;52.270;10.546;2024-03-08T05:04:24;35.88;;;17.25;;
54452;SDS011;40363;52.270;10.546;2024-03-08T05:06:50;35.30;;;17.42;;
54452;SDS011;40363;52.270;10.546;2024-03-08T05:09:20;38.50;;;17.80;;
54452;SDS011;40363;52.270;10.546;2024-03-08T05:11:46;36.20;;;19.25;;
54452;SDS011;40363;52.270;10.546;2024-03-08T05:14:14;38.15;;;18.55;;
54452;SDS011;40363;52.270;10.546;2024-03-08T05:16:42;36.17;;;18.40;;
54452;SDS011;40363;52.270;10.546;2024-03-08T05:19:08;33.42;;;18.02;;
54452;SDS011;40363;52.270;10.546;2024-03-08T05:21:35;38.38;;;18.98;;
54452;SDS011;40363;52.270;10.546;2024-03-08T05:24:02;37.95;;;19.48;;
54452;SDS011;40363;52.270;10.546;2024-03-08T05:26:31;33.13;;;18.77;;
54452;SDS011;40363;52.270;10.546;2024-03-08T05:28:58;38.33;;;19.33;;
54452;SDS011;40363;52.270;10.546;2024-03-08T05:31:25;37.88;;;19.38;;
54452;SDS011;40363;52.270;10.546;2024-03-08T05:33:53;37.05;;;19.85;;
54452;SDS011;40363;52.270;10.546;2024-03-08T05:36:20;33.85;;;18.02;;
54452;SDS011;40363;52.270;10.546;2024-03-08T05:38:47;36.53;;;19.13;;
54452;SDS011;40363;52.270;10.546;2024-03-08T05:41:15;35.53;;;19.58;;
54452;SDS011;40363;52.270;10.546;2024-03-08T05:43:43;38.05;;;18.83;;
54452;SDS011;40363;52.270;10.546;2024-03-08T05:46:10;36.55;;;19.13;;
54452;SDS011;40363;52.270;10.546;2024-03-08T05:48:37;33.75;;;18.10;;
54452;SDS011;40363;52.270;10.546;2024-03-08T05:51:03;37.05;;;17.30;;
54452;SDS011;40363;52.270;10.546;2024-03-08T05:53:30;41.50;;;20.52;;
54452;SDS011;40363;52.270;10.546;2024-03-08T05:55:57;37.50;;;19.05;;
54452;SDS011;40363;52.270;10.546;2024-03-08T05:58:27;33.15;;;19.27;;
54452;SDS011;40363;52.270;10.546;2024-03-08T06:00:56;39.92;;;19.30;;
54452;SDS011;40363;52.270;10.546;2024-03-08T06:03:23;37.50;;;18.95;;
54452;SDS011;40363;52.270;10.546;2024-03-08T06:05:50;38.95;;;19.92;;
54452;SDS011;40363;52.270;10.546;2024-03-08T06:08:16;37.22;;;20.35;;
54452;SDS011;40363;52.270;10.546;2024-03-08T06:10:44;37.85;;;19.08;;
54452;SDS011;40363;52.270;10.546;2024-03-08T06:13:11;34.00;;;19.25;;
54452;SDS011;40363;52.270;10.546;2024-03-08T06:15:38;35.40;;;17.70;;
54452;SDS011;40363;52.270;10.546;2024-03-08T06:18:06;36.70;;;19.25;;
54452;SDS011;40363;52.270;10.546;2024-03-08T06:20:35;38.28;;;20.15;;
54452;SDS011;40363;52.270;10.546;2024-03-08T06:23:02;36.05;;;18.83;;
54452;SDS011;40363;52.270;10.546;2024-03-08T06:25:29;42.35;;;20.67;;
54452;SDS011;40363;52.270;10.546;2024-03-08T06:27:56;33.22;;;18.15;;
54452;SDS011;40363;52.270;10.546;2024-03-08T06:30:22;36.53;;;18.98;;
54452;SDS011;40363;52.270;10.546;2024-03-08T06:32:49;38.63;;;19.65;;
54452;SDS011;40363;52.270;10.546;2024-03-08T06:35:18;35.65;;;19.17;;
54452;SDS011;40363;52.270;10.546;2024-03-08T06:37:45;34.38;;;18.33;;
54452;SDS011;40363;52.270;10.546;2024-03-08T06:40:12;36.25;;;19.60;;
54452;SDS011;40363;52.270;10.546;2024-03-08T06:42:39;31.20;;;17.80;;
54452;SDS011;40363;52.270;10.546;2024-03-08T06:45:06;36.58;;;19.33;;
54452;SDS011;40363;52.270;10.546;2024-03-08T06:47:35;33.92;;;18.95;;
54452;SDS011;40363;52.270;10.546;2024-03-08T06:50:02;34.45;;;17.90;;
54452;SDS011;40363;52.270;10.546;2024-03-08T06:52:32;33.00;;;17.42;;
54452;SDS011;40363;52.270;10.546;2024-03-08T06:54:59;30.00;;;17.42;;
54452;SDS011;40363;52.270;10.546;2024-03-08T06:57:26;31.50;;;17.27;;
54452;SDS011;40363;52.270;10.546;2024-03-08T06:59:54;35.33;;;17.63;;
54452;SDS011;40363;52.270;10.546;2024-03-08T07:02:22;32.65;;;16.55;;
54452;SDS011;40363;52.270;10.546;2024-03-08T07:04:49;31.70;;;16.65;;
54452;SDS011;40363;52.270;10.546;2024-03-08T07:07:16;34.33;;;18.20;;
54452;SDS011;40363;52.270;10.546;2024-03-08T07:09:46;34.80;;;16.98;;
54452;SDS011;40363;52.270;10.546;2024-03-08T07:12:14;38.60;;;18.20;;
54452;SDS011;40363;52.270;10.546;2024-03-08T07:14:42;35.50;;;18.02;;
54452;SDS011;40363;52.270;10.546;2024-03-08T07:17:10;30.90;;;16.63;;
54452;SDS011;40363;52.270;10.546;2024-03-08T07:19:37;30.25;;;16.33;;
54452;SDS011;40363;52.270;10.546;2024-03-08T07:22:04;33.00;;;17.52;;
54452;SDS011;40363;52.270;10.546;2024-03-08T07:24:33;28.05;;;15.90;;
54452;SDS011;40363;52.270;10.546;2024-03-08T07:27:16;28.30;;;15.50;;
54452;SDS011;40363;52.270;10.546;2024-03-08T07:29:43;32.58;;;16.60;;
54452;SDS011;40363;52.270;10.546;2024-03-08T07:32:10;31.45;;;16.23;;
54452;SDS011;40363;52.270;10.546;2024-03-08T07:34:46;33.00;;;17.20;;
54452;SDS011;40363;52.270;10.546;2024-03-08T07:37:13;32.00;;;16.10;;
54452;SDS011;40363;52.270;10.546;2024-03-08T07:39:40;26.55;;;15.07;;
54452;SDS011;40363;52.270;10.546;2024-03-08T07:42:07;27.30;;;15.57;;
54452;SDS011;40363;52.270;10.546;2024-03-08T07:44:34;29.33;;;17.35;;
54452;SDS011;40363;52.270;10.546;2024-03-08T07:47:01;29.20;;;15.00;;
54452;SDS011;40363;52.270;10.546;2024-03-08T07:49:28;27.33;;;15.90;;
54452;SDS011;40363;52.270;10.546;2024-03-08T07:51:55;31.23;;;15.13;;
54452;SDS011;40363;52.270;10.546;2024-03-08T07:54:21;30.88;;;15.05;;
54452;SDS011;40363;52.270;10.546;2024-03-08T07:56:48;22.10;;;12.52;;
54452;SDS011;40363;52.270;10.546;2024-03-08T07:59:16;24.90;;;13.52;;
54452;SDS011;40363;52.270;10.546;2024-03-08T08:01:44;26.02;;;13.98;;
54452;SDS011;40363;52.270;10.546;2024-03-08T08:04:12;24.73;;;13.68;;
54452;SDS011;40363;52.270;10.546;2024-03-08T08:06:40;27.20;;;13.02;;
54452;SDS011;40363;52.270;10.546;2024-03-08T08:09:07;24.00;;;13.40;;
54452;SDS011;40363;52.270;10.546;2024-03-08T08:11:39;25.85;;;13.82;;
54452;SDS011;40363;52.270;10.546;2024-03-08T08:14:08;23.23;;;12.55;;
54452;SDS011;40363;52.270;10.546;2024-03-08T08:16:35;22.13;;;12.75;;
54452;SDS011;40363;52.270;10.546;2024-03-08T08:19:03;24.52;;;13.25;;
54452;SDS011;40363;52.270;10.546;2024-03-08T08:21:32;23.50;;;13.25;;
54452;SDS011;40363;52.270;10.546;2024-03-08T08:23:59;22.50;;;13.52;;
54452;SDS011;40363;52.270;10.546;2024-03-08T08:26:28;22.45;;;12.20;;
54452;SDS011;40363;52.270;10.546;2024-03-08T08:28:55;25.60;;;13.90;;
54452;SDS011;40363;52.270;10.546;2024-03-08T08:31:22;22.55;;;12.43;;
54452;SDS011;40363;52.270;10.546;2024-03-08T08:33:48;24.33;;;12.52;;
54452;SDS011;40363;52.270;10.546;2024-03-08T08:36:16;25.15;;;12.38;;
54452;SDS011;40363;52.270;10.546;2024-03-08T08:38:43;23.30;;;12.40;;
54452;SDS011;40363;52.270;10.546;2024-03-08T08:41:10;22.23;;;12.13;;
54452;SDS011;40363;52.270;10.546;2024-03-08T08:43:38;27.90;;;13.88;;
54452;SDS011;40363;52.270;10.546;2024-03-08T08:46:04;28.70;;;13.02;;
54452;SDS011;40363;52.270;10.546;2024-03-08T08:48:31;21.75;;;13.85;;
54452;SDS011;40363;52.270;10.546;2024-03-08T08:50:58;23.50;;;13.00;;
54452;SDS011;40363;52.270;10.546;2024-03-08T08:53:26;30.35;;;13.95;;
54452;SDS011;40363;52.270;10.546;2024-03-08T08:55:53;28.35;;;13.13;;
54452;SDS011;40363;52.270;10.546;2024-03-08T08:58:19;24.67;;;12.65;;
54452;SDS011;40363;52.270;10.546;2024-03-08T09:00:47;24.27;;;13.20;;
54452;SDS011;40363;52.270;10.546;2024-03-08T09:03:15;22.95;;;12.20;;
54452;SDS011;40363;52.270;10.546;2024-03-08T09:05:42;28.05;;;12.65;;
54452;SDS011;40363;52.270;10.546;2024-03-08T09:08:08;19.70;;;11.80;;
54452;SDS011;40363;52.270;10.546;2024-03-08T09:10:36;26.17;;;13.23;;
54452;SDS011;40363;52.270;10.546;2024-03-08T09:13:04;19.58;;;11.95;;
54452;SDS011;40363;52.270;10.546;2024-03-08T09:15:31;23.90;;;12.77;;
54452;SDS011;40363;52.270;10.546;2024-03-08T09:17:57;24.35;;;13.40;;
54452;SDS011;40363;52.270;10.546;2024-03-08T09:20:25;29.65;;;13.40;;
54452;SDS011;40363;52.270;10.546;2024-03-08T09:22:52;25.05;;;14.05;;
54452;SDS011;40363;52.270;10.546;2024-03-08T09:25:20;25.70;;;14.15;;
54452;SDS011;40363;52.270;10.546;2024-03-08T09:27:48;28.73;;;15.15;;
54452;SDS011;40363;52.270;10.546;2024-03-08T09:30:15;25.75;;;13.05;;
54452;SDS011;40363;52.270;10.546;2024-03-08T09:32:43;24.60;;;13.43;;
54452;SDS011;40363;52.270;10.546;2024-03-08T09:35:10;26.15;;;15.13;;
54452;SDS011;40363;52.270;10.546;2024-03-08T09:37:36;27.48;;;15.30;;
54452;SDS011;40363;52.270;10.546;2024-03-08T09:40:04;25.65;;;13.95;;
54452;SDS011;40363;52.270;10.546;2024-03-08T09:42:34;24.95;;;14.90;;
54452;SDS011;40363;52.270;10.546;2024-03-08T09:45:04;32.38;;;15.23;;
54452;SDS011;40363;52.270;10.546;2024-03-08T09:47:35;28.45;;;15.55;;
54452;SDS011;40363;52.270;10.546;2024-03-08T09:50:04;27.05;;;13.82;;
54452;SDS011;40363;52.270;10.546;2024-03-08T09:52:34;24.88;;;13.45;;
54452;SDS011;40363;52.270;10.546;2024-03-08T09:55:01;28.63;;;14.00;;
54452;SDS011;40363;52.270;10.546;2024-03-08T09:57:27;28.23;;;15.38;;
54452;SDS011;40363;52.270;10.546;2024-03-08T09:59:54;30.00;;;15.07;;
54452;SDS011;40363;52.270;10.546;2024-03-08T10:02:22;31.63;;;14.57;;
54452;SDS011;40363;52.270;10.546;2024-03-08T10:04:50;29.60;;;14.90;;
54452;SDS011;40363;52.270;10.546;2024-03-08T10:07:18;29.50;;;15.30;;
54452;SDS011;40363;52.270;10.546;2024-03-08T10:09:45;31.67;;;15.82;;
54452;SDS011;40363;52.270;10.546;2024-03-08T10:12:15;32.80;;;16.25;;
54452;SDS011;40363;52.270;10.546;2024-03-08T10:14:42;28.38;;;15.40;;
54452;SDS011;40363;52.270;10.546;2024-03-08T10:17:09;31.27;;;15.50;;
54452;SDS011;40363;52.270;10.546;2024-03-08T10:19:37;29.67;;;15.60;;
54452;SDS011;40363;52.270;10.546;2024-03-08T10:22:04;31.65;;;15.35;;
54452;SDS011;40363;52.270;10.546;2024-03-08T10:24:31;34.80;;;14.82;;
54452;SDS011;40363;52.270;10.546;2024-03-08T10:26:59;30.85;;;15.63;;
54452;SDS011;40363;52.270;10.546;2024-03-08T10:29:29;27.83;;;14.13;;
54452;SDS011;40363;52.270;10.546;2024-03-08T10:31:56;27.25;;;14.68;;
54452;SDS011;40363;52.270;10.546;2024-03-08T10:34:23;28.80;;;15.20;;
54452;SDS011;40363;52.270;10.546;2024-03-08T10:36:52;28.90;;;15.30;;
54452;SDS011;40363;52.270;10.546;2024-03-08T10:39:21;31.63;;;16.05;;
54452;SDS011;40363;52.270;10.546;2024-03-08T10:41:51;29.73;;;16.02;;
54452;SDS011;40363;52.270;10.546;2024-03-08T10:47:18;34.80;;;16.50;;
54452;SDS011;40363;52.270;10.546;2024-03-08T10:49:51;26.42;;;14.35;;
54452;SDS011;40363;52.270;10.546;2024-03-08T10:52:23;30.52;;;14.27;;
54452;SDS011;40363;52.270;10.546;2024-03-08T10:54:50;25.17;;;13.75;;
54452;SDS011;40363;52.270;10.546;2024-03-08T10:57:20;25.17;;;12.27;;
54452;SDS011;40363;52.270;10.546;2024-03-08T10:59:49;29.10;;;14.05;;
54452;SDS011;40363;52.270;10.546;2024-03-08T11:02:17;26.85;;;14.07;;
54452;SDS011;40363;52.270;10.546;2024-03-08T11:04:48;28.90;;;13.90;;
54452;SDS011;40363;52.270;10.546;2024-03-08T11:07:15;30.08;;;15.27;;
54452;SDS011;40363;52.270;10.546;2024-03-08T11:09:48;25.48;;;13.00;;
54452;SDS011;40363;52.270;10.546;2024-03-08T11:12:18;23.60;;;13.60;;
54452;SDS011;40363;52.270;10.546;2024-03-08T11:14:46;27.45;;;13.63;;
54452;SDS011;40363;52.270;10.546;2024-03-08T11:17:15;26.17;;;13.70;;
54452;SDS011;40363;52.270;10.546;2024-03-08T11:19:45;27.83;;;13.95;;
54452;SDS011;40363;52.270;10.546;2024-03-08T11:22:23;29.77;;;13.93;;
54452;SDS011;40363;52.270;10.546;2024-03-08T11:24:59;28.77;;;15.43;;
54452;SDS011;40363;52.270;10.546;2024-03-08T11:27:28;30.85;;;14.65;;
54452;SDS011;40363;52.270;10.546;2024-03-08T11:29:59;28.23;;;12.25;;
54452;SDS011;40363;52.270;10.546;2024-03-08T11:32:34;31.77;;;15.32;;
54452;SDS011;40363;52.270;10.546;2024-03-08T11:35:03;31.77;;;14.70;;
54452;SDS011;40363;52.270;10.546;2024-03-08T11:37:33;25.05;;;14.43;;
54452;SDS011;40363;52.270;10.546;2024-03-08T11:40:05;26.88;;;13.73;;
54452;SDS011;40363;52.270;10.546;2024-03-08T11:42:43;24.95;;;12.95;;
54452;SDS011;40363;52.270;10.546;2024-03-08T11:45:11;27.25;;;13.52;;
54452;SDS011;40363;52.270;10.546;2024-03-08T11:47:38;27.60;;;13.10;;
54452;SDS011;40363;52.270;10.546;2024-03-08T11:50:09;26.92;;;13.32;;
54452;SDS011;40363;52.270;10.546;2024-03-08T11:52:37;25.13;;;12.48;;
54452;SDS011;40363;52.270;10.546;2024-03-08T11:55:06;26.65;;;12.15;;
54452;SDS011;40363;52.270;10.546;2024-03-08T11:57:33;25.35;;;12.95;;
54452;SDS011;40363;52.270;10.546;2024-03-08T12:00:00;24.45;;;13.23;;
54452;SDS011;40363;52.270;10.546;2024-03-08T12:02:32;19.48;;;10.98;;
54452;SDS011;40363;52.270;10.546;2024-03-08T12:05:00;21.50;;;12.27;;
54452;SDS011;40363;52.270;10.546;2024-03-08T12:07:28;25.60;;;11.52;;
54452;SDS011;40363;52.270;10.546;2024-03-08T12:10:17;17.92;;;10.10;;
54452;SDS011;40363;52.270;10.546;2024-03-08T12:12:46;20.17;;;11.35;;
54452;SDS011;40363;52.270;10.546;2024-03-08T12:15:14;24.38;;;11.50;;
54452;SDS011;40363;52.270;10.546;2024-03-08T12:17:43;28.90;;;11.95;;
54452;SDS011;40363;52.270;10.546;2024-03-08T12:20:14;21.77;;;11.57;;
54452;SDS011;40363;52.270;10.546;2024-03-08T12:22:42;21.08;;;11.30;;
54452;SDS011;40363;52.270;10.546;2024-03-08T12:25:10;21.02;;;11.00;;
54452;SDS011;40363;52.270;10.546;2024-03-08T12:27:39;19.73;;;9.98;;
54452;SDS011;40363;52.270;10.546;2024-03-08T12:36:02;22.10;;;11.25;;
54452;SDS011;40363;52.270;10.546;2024-03-08T12:38:45;21.85;;;11.68;;
54452;SDS011;40363;52.270;10.546;2024-03-08T12:44:06;25.33;;;12.25;;
54452;SDS011;40363;52.270;10.546;2024-03-08T12:47:11;19.80;;;10.50;;
54452;SDS011;40363;52.270;10.546;2024-03-08T12:50:11;19.52;;;10.48;;
54452;SDS011;40363;52.270;10.546;2024-03-08T12:52:43;21.20;;;10.43;;
54452;SDS011;40363;52.270;10.546;2024-03-08T12:55:52;18.50;;;8.98;;
54452;SDS011;40363;52.270;10.546;2024-03-08T12:58:27;19.52;;;10.82;;
54452;SDS011;40363;52.270;10.546;2024-03-08T13:01:05;20.20;;;10.23;;
54452;SDS011;40363;52.270;10.546;2024-03-08T13:03:37;18.50;;;9.95;;
54452;SDS011;40363;52.270;10.546;2024-03-08T13:06:05;17.52;;;9.98;;
54452;SDS011;40363;52.270;10.546;2024-03-08T13:08:33;20.63;;;10.05;;
54452;SDS011;40363;52.270;10.546;2024-03-08T13:11:06;17.75;;;9.90;;
54452;SDS011;40363;52.270;10.546;2024-03-08T13:13:35;16.08;;;9.23;;
54452;SDS011;40363;52.270;10.546;2024-03-08T13:16:14;19.48;;;10.32;;
54452;SDS011;40363;52.270;10.546;2024-03-08T13:18:42;17.95;;;9.30;;
54452;SDS011;40363;52.270;10.546;2024-03-08T13:21:13;19.90;;;10.52;;
54452;SDS011;40363;52.270;10.546;2024-03-08T13:23:43;19.13;;;11.48;;
54452;SDS011;40363;52.270;10.546;2024-03-08T13:26:14;23.92;;;12.50;;
54452;SDS011;40363;52.270;10.546;2024-03-08T13:28:42;22.00;;;12.10;;
54452;SDS011;40363;52.270;10.546;2024-03-08T13:31:09;21.85;;;11.63;;
54452;SDS011;40363;52.270;10.546;2024-03-08T13:33:37;22.30;;;11.50;;
54452;SDS011;40363;52.270;10.546;2024-03-08T13:36:06;19.23;;;10.90;;
54452;SDS011;40363;52.270;10.546;2024-03-08T13:38:40;21.70;;;11.25;;
54452;SDS011;40363;52.270;10.546;2024-03-08T13:41:08;27.75;;;11.98;;
54452;SDS011;40363;52.270;10.546;2024-03-08T13:43:39;23.13;;;11.98;;
54452;SDS011;40363;52.270;10.546;2024-03-08T13:46:05;22.45;;;12.38;;
54452;SDS011;40363;52.270;10.546;2024-03-08T13:48:32;23.13;;;11.35;;
54452;SDS011;40363;52.270;10.546;2024-03-08T13:51:01;19.90;;;11.93;;
54452;SDS011;40363;52.270;10.546;2024-03-08T13:53:27;20.08;;;10.95;;
54452;SDS011;40363;52.270;10.546;2024-03-08T13:55:54;23.55;;;12.30;;
54452;SDS011;40363;52.270;10.546;2024-03-08T13:58:21;29.25;;;12.75;;
54452;SDS011;40363;52.270;10.546;2024-03-08T14:00:48;22.75;;;11.13;;
54452;SDS011;40363;52.270;10.546;2024-03-08T14:03:16;23.00;;;11.05;;
54452;SDS011;40363;52.270;10.546;2024-03-08T14:05:43;24.40;;;10.90;;
54452;SDS011;40363;52.270;10.546;2024-03-08T14:08:13;19.73;;;10.73;;
54452;SDS011;40363;52.270;10.546;2024-03-08T14:10:41;21.20;;;11.55;;
54452;SDS011;40363;52.270;10.546;2024-03-08T14:13:07;17.08;;;11.65;;
54452;SDS011;40363;52.270;10.546;2024-03-08T14:15:36;20.15;;;9.43;;
54452;SDS011;40363;52.270;10.546;2024-03-08T14:18:07;26.25;;;11.27;;
54452;SDS011;40363;52.270;10.546;2024-03-08T14:20:33;23.38;;;11.15;;
54452;SDS011;40363;52.270;10.546;2024-03-08T14:23:00;24.15;;;11.32;;
54452;SDS011;40363;52.270;10.546;2024-03-08T14:25:28;18.77;;;9.70;;
54452;SDS011;40363;52.270;10.546;2024-03-08T14:27:58;22.25;;;10.27;;
54452;SDS011;40363;52.270;10.546;2024-03-08T14:30:28;21.95;;;11.13;;
54452;SDS011;40363;52.270;10.546;2024-03-08T14:32:59;19.80;;;9.35;;
54452;SDS011;40363;52.270;10.546;2024-03-08T14:35:30;18.08;;;9.90;;
54452;SDS011;40363;52.270;10.546;2024-03-08T14:37:57;20.98;;;9.95;;
54452;SDS011;40363;52.270;10.546;2024-03-08T14:40:24;23.45;;;10.70;;
54452;SDS011;40363;52.270;10.546;2024-03-08T14:42:52;21.17;;;11.32;;
54452;SDS011;40363;52.270;10.546;2024-03-08T14:45:19;17.95;;;9.75;;
54452;SDS011;40363;52.270;10.546;2024-03-08T14:47:46;18.35;;;9.25;;
54452;SDS011;40363;52.270;10.546;2024-03-08T14:50:16;14.75;;;8.98;;
54452;SDS011;40363;52.270;10.546;2024-03-08T14:52:43;18.08;;;8.55;;
54452;SDS011;40363;52.270;10.546;2024-03-08T14:55:09;19.73;;;8.98;;
54452;SDS011;40363;52.270;10.546;2024-03-08T14:57:39;22.83;;;11.23;;
54452;SDS011;40363;52.270;10.546;2024-03-08T15:00:08;17.45;;;10.25;;
54452;SDS011;40363;52.270;10.546;2024-03-08T15:02:41;18.25;;;9.55;;
54452;SDS011;40363;52.270;10.546;2024-03-08T15:05:08;17.55;;;9.70;;
54452;SDS011;40363;52.270;10.546;2024-03-08T15:07:36;15.70;;;9.00;;
54452;SDS011;40363;52.270;10.546;2024-03-08T15:10:04;19.17;;;9.18;;
54452;SDS011;40363;52.270;10.546;2024-03-08T15:12:36;17.58;;;10.50;;
54452;SDS011;40363;52.270;10.546;2024-03-08T15:15:04;19.10;;;9.32;;
54452;SDS011;40363;52.270;10.546;2024-03-08T15:17:34;18.65;;;9.40;;
54452;SDS011;40363;52.270;10.546;2024-03-08T15:20:01;20.60;;;10.55;;
54452;SDS011;40363;52.270;10.546;2024-03-08T15:22:29;16.85;;;9.25;;
54452;SDS011;40363;52.270;10.546;2024-03-08T15:24:55;17.13;;;8.48;;
54452;SDS011;40363;52.270;10.546;2024-03-08T15:27:23;15.48;;;8.15;;
54452;SDS011;40363;52.270;10.546;2024-03-08T15:29:50;19.45;;;9.30;;